sensor_id;sensor_type;location;lat;lon;timestamp;P1;durP1;ratioP1;P2;durP2;ratioP2
30046;SDS011;16878;52.542;13.426;2023-02-02T00:00:43;35.20;;;5.13;;
30046;SDS011;16878;52.542;13.426;2023-02-02T00:03:09;35.55;;;6.22;;
30046;SDS011;16878;52.542;13.426;2023-02-02T00:05:35;38.75;;;5.82;;
30046;SDS011;16878;52.542;13.426;2023-02-02T00:08:01;39.55;;;6.03;;
30046;SDS011;16878;52.542;13.426;2023-02-02T00:10:26;34.13;;;5.35;;
30046;SDS011;16878;52.542;13.426;2023-02-02T00:12:52;26.63;;;4.75;;
30046;SDS011;16878;52.542;13.426;2023-02-02T00:15:21;29.38;;;5.68;;
30046;SDS011;16878;52.542;13.426;2023-02-02T00:17:50;40.45;;;6.35;;
30046;SDS011;16878;52.542;13.426;2023-02-02T00:20:16;36.15;;;5.93;;
30046;SDS011;16878;52.542;13.426;2023-02-02T00:22:41;38.25;;;6.47;;
30046;SDS011;16878;52.542;13.426;2023-02-02T00:25:07;31.42;;;5.00;;
30046;SDS011;16878;52.542;13.426;2023-02-02T00:27:33;30.23;;;5.18;;
30046;SDS011;16878;52.542;13.426;2023-02-02T00:29:59;32.25;;;5.70;;
30046;SDS011;16878;52.542;13.426;2023-02-02T00:32:24;37.28;;;6.03;;
30046;SDS011;16878;52.542;13.426;2023-02-02T00:34:50;26.77;;;5.90;;
30046;SDS011;16878;52.542;13.426;2023-02-02T00:37:16;39.42;;;5.63;;
30046;SDS011;16878;52.542;13.426;2023-02-02T00:39:41;36.55;;;5.25;;
30046;SDS011;16878;52.542;13.426;2023-02-02T00:42:08;23.65;;;5.10;;
30046;SDS011;16878;52.542;13.426;2023-02-02T00:44:35;29.15;;;5.32;;
30046;SDS011;16878;52.542;13.426;2023-02-02T00:47:20;34.42;;;6.13;;
30046;SDS011;16878;52.542;13.426;2023-02-02T00:49:46;29.02;;;6.03;;
30046;SDS011;16878;52.542;13.426;2023-02-02T00:52:12;44.15;;;6.55;;
30046;SDS011;16878;52.542;13.426;2023-02-02T00:54:38;43.92;;;5.75;;
30046;SDS011;16878;52.542;13.426;2023-02-02T00:57:04;30.95;;;4.90;;
30046;SDS011;16878;52.542;13.426;2023-02-02T00:59:29;28.38;;;6.53;;
30046;SDS011;16878;52.542;13.426;2023-02-02T01:01:55;32.78;;;5.90;;
30046;SDS011;16878;52.542;13.426;2023-02-02T01:04:24;28.33;;;5.57;;
30046;SDS011;16878;52.542;13.426;2023-02-02T01:06:50;38.22;;;6.25;;
30046;SDS011;16878;52.542;13.426;2023-02-02T01:09:16;23.98;;;4.32;;
30046;SDS011;16878;52.542;13.426;2023-02-02T01:11:41;35.17;;;6.03;;
30046;SDS011;16878;52.542;13.426;2023-02-02T01:14:07;34.53;;;5.00;;
30046;SDS011;16878;52.542;13.426;2023-02-02T01:16:36;42.10;;;5.53;;
30046;SDS011;16878;52.542;13.426;2023-02-02T01:19:01;23.08;;;5.65;;
30046;SDS011;16878;52.542;13.426;2023-02-02T01:21:27;28.38;;;5.38;;
30046;SDS011;16878;52.542;13.426;2023-02-02T01:23:53;26.23;;;4.53;;
30046;SDS011;16878;52.542;13.426;2023-02-02T01:26:18;29.45;;;5.05;;
30046;SDS011;16878;52.542;13.426;2023-02-02T01:28:44;40.83;;;6.13;;
30046;SDS011;16878;52.542;13.426;2023-02-02T01:31:12;35.85;;;4.88;;
30046;SDS011;16878;52.542;13.426;2023-02-02T01:33:39;25.35;;;4.13;;
30046;SDS011;16878;52.542;13.426;2023-02-02T01:36:17;40.42;;;6.20;;
30046;SDS011;16878;52.542;13.426;2023-02-02T01:41:14;29.95;;;5.40;;
30046;SDS011;16878;52.542;13.426;2023-02-02T01:46:11;38.83;;;4.95;;
30046;SDS011;16878;52.542;13.426;2023-02-02T01:48:40;34.33;;;5.45;;
30046;SDS011;16878;52.542;13.426;2023-02-02T01:51:10;27.88;;;5.43;;
30046;SDS011;16878;52.542;13.426;2023-02-02T01:53:41;30.65;;;4.85;;
30046;SDS011;16878;52.542;13.426;2023-02-02T01:56:09;35.30;;;5.95;;
30046;SDS011;16878;52.542;13.426;2023-02-02T01:58:39;27.13;;;4.18;;
30046;SDS011;16878;52.542;13.426;2023-02-02T02:01:06;31.75;;;5.90;;
30046;SDS011;16878;52.542;13.426;2023-02-02T02:03:33;33.78;;;4.95;;
30046;SDS011;16878;52.542;13.426;2023-02-02T02:06:02;34.17;;;4.97;;
30046;SDS011;16878;52.542;13.426;2023-02-02T02:11:18;35.20;;;5.70;;
30046;SDS011;16878;52.542;13.426;2023-02-02T02:13:44;28.70;;;5.00;;
30046;SDS011;16878;52.542;13.426;2023-02-02T02:16:47;20.48;;;4.03;;
30046;SDS011;16878;52.542;13.426;2023-02-02T02:26:10;34.33;;;5.00;;
30046;SDS011;16878;52.542;13.426;2023-02-02T02:36:54;26.63;;;4.35;;
30046;SDS011;16878;52.542;13.426;2023-02-02T02:39:34;28.85;;;5.32;;
30046;SDS011;16878;52.542;13.426;2023-02-02T02:42:09;35.53;;;5.18;;
30046;SDS011;16878;52.542;13.426;2023-02-02T02:44:39;27.20;;;4.28;;
30046;SDS011;16878;52.542;13.426;2023-02-02T02:47:05;42.58;;;5.13;;
30046;SDS011;16878;52.542;13.426;2023-02-02T02:49:32;34.88;;;4.95;;
30046;SDS011;16878;52.542;13.426;2023-02-02T02:51:57;31.00;;;4.60;;
30046;SDS011;16878;52.542;13.426;2023-02-02T03:07:34;27.70;;;6.13;;
30046;SDS011;16878;52.542;13.426;2023-02-02T03:10:07;20.70;;;4.82;;
30046;SDS011;16878;52.542;13.426;2023-02-02T03:12:45;27.60;;;4.55;;
30046;SDS011;16878;52.542;13.426;2023-02-02T03:15:13;38.60;;;5.38;;
30046;SDS011;16878;52.542;13.426;2023-02-02T03:17:39;23.15;;;4.00;;
30046;SDS011;16878;52.542;13.426;2023-02-02T03:20:07;16.42;;;3.97;;
30046;SDS011;16878;52.542;13.426;2023-02-02T03:22:33;21.15;;;3.45;;
30046;SDS011;16878;52.542;13.426;2023-02-02T03:24:58;21.42;;;3.58;;
30046;SDS011;16878;52.542;13.426;2023-02-02T03:27:24;22.80;;;4.35;;
30046;SDS011;16878;52.542;13.426;2023-02-02T03:29:53;20.50;;;4.30;;
30046;SDS011;16878;52.542;13.426;2023-02-02T03:32:19;18.30;;;3.85;;
30046;SDS011;16878;52.542;13.426;2023-02-02T03:34:45;17.13;;;3.05;;
30046;SDS011;16878;52.542;13.426;2023-02-02T03:37:11;19.25;;;3.50;;
30046;SDS011;16878;52.542;13.426;2023-02-02T03:39:36;24.50;;;3.67;;
30046;SDS011;16878;52.542;13.426;2023-02-02T03:42:02;23.77;;;4.13;;
30046;SDS011;16878;52.542;13.426;2023-02-02T03:44:28;11.75;;;2.25;;
30046;SDS011;16878;52.542;13.426;2023-02-02T03:46:53;19.23;;;3.50;;
30046;SDS011;16878;52.542;13.426;2023-02-02T03:49:19;20.30;;;3.22;;
30046;SDS011;16878;52.542;13.426;2023-02-02T03:51:45;23.98;;;3.65;;
30046;SDS011;16878;52.542;13.426;2023-02-02T03:54:11;20.90;;;3.85;;
30046;SDS011;16878;52.542;13.426;2023-02-02T03:56:38;26.08;;;4.03;;
30046;SDS011;16878;52.542;13.426;2023-02-02T03:59:03;20.90;;;3.33;;
30046;SDS011;16878;52.542;13.426;2023-02-02T04:01:29;21.17;;;3.85;;
30046;SDS011;16878;52.542;13.426;2023-02-02T04:03:56;17.00;;;2.38;;
30046;SDS011;16878;52.542;13.426;2023-02-02T04:06:23;27.63;;;4.07;;
30046;SDS011;16878;52.542;13.426;2023-02-02T04:08:49;26.55;;;4.03;;
30046;SDS011;16878;52.542;13.426;2023-02-02T04:11:16;24.58;;;4.35;;
30046;SDS011;16878;52.542;13.426;2023-02-02T04:13:42;21.63;;;4.30;;
30046;SDS011;16878;52.542;13.426;2023-02-02T04:16:09;21.80;;;3.95;;
30046;SDS011;16878;52.542;13.426;2023-02-02T04:18:35;18.92;;;3.65;;
30046;SDS011;16878;52.542;13.426;2023-02-02T04:21:05;17.95;;;3.65;;
30046;SDS011;16878;52.542;13.426;2023-02-02T04:23:32;22.38;;;3.92;;
30046;SDS011;16878;52.542;13.426;2023-02-02T04:25:58;21.95;;;4.15;;
30046;SDS011;16878;52.542;13.426;2023-02-02T04:28:25;13.00;;;2.40;;
30046;SDS011;16878;52.542;13.426;2023-02-02T04:30:52;16.77;;;3.33;;
30046;SDS011;16878;52.542;13.426;2023-02-02T04:33:19;13.10;;;2.53;;
30046;SDS011;16878;52.542;13.426;2023-02-02T04:35:45;20.83;;;3.50;;
30046;SDS011;16878;52.542;13.426;2023-02-02T04:38:11;14.35;;;3.05;;
30046;SDS011;16878;52.542;13.426;2023-02-02T04:40:38;20.00;;;3.63;;
30046;SDS011;16878;52.542;13.426;2023-02-02T04:43:07;21.63;;;3.75;;
30046;SDS011;16878;52.542;13.426;2023-02-02T04:45:33;22.23;;;3.33;;
30046;SDS011;16878;52.542;13.426;2023-02-02T04:47:59;21.00;;;3.22;;
30046;SDS011;16878;52.542;13.426;2023-02-02T04:50:25;33.75;;;3.88;;
30046;SDS011;16878;52.542;13.426;2023-02-02T04:55:20;15.90;;;3.03;;
30046;SDS011;16878;52.542;13.426;2023-02-02T04:57:46;20.75;;;4.03;;
30046;SDS011;16878;52.542;13.426;2023-02-02T05:00:12;31.17;;;4.20;;
30046;SDS011;16878;52.542;13.426;2023-02-02T05:02:38;23.20;;;3.85;;
30046;SDS011;16878;52.542;13.426;2023-02-02T05:05:06;17.48;;;3.30;;
30046;SDS011;16878;52.542;13.426;2023-02-02T05:07:35;20.42;;;3.80;;
30046;SDS011;16878;52.542;13.426;2023-02-02T05:10:01;19.67;;;2.95;;
30046;SDS011;16878;52.542;13.426;2023-02-02T05:12:28;21.75;;;3.60;;
30046;SDS011;16878;52.542;13.426;2023-02-02T05:14:53;19.85;;;3.42;;
30046;SDS011;16878;52.542;13.426;2023-02-02T05:17:19;18.30;;;3.65;;
30046;SDS011;16878;52.542;13.426;2023-02-02T05:19:45;22.73;;;3.67;;
30046;SDS011;16878;52.542;13.426;2023-02-02T05:22:10;15.43;;;3.40;;
30046;SDS011;16878;52.542;13.426;2023-02-02T05:24:36;27.23;;;3.13;;
30046;SDS011;16878;52.542;13.426;2023-02-02T05:27:02;20.52;;;3.25;;
30046;SDS011;16878;52.542;13.426;2023-02-02T05:29:28;23.55;;;3.60;;
30046;SDS011;16878;52.542;13.426;2023-02-02T05:31:54;16.80;;;3.50;;
30046;SDS011;16878;52.542;13.426;2023-02-02T05:34:21;19.80;;;3.10;;
30046;SDS011;16878;52.542;13.426;2023-02-02T05:36:47;17.08;;;2.70;;
30046;SDS011;16878;52.542;13.426;2023-02-02T05:39:16;27.48;;;3.30;;
30046;SDS011;16878;52.542;13.426;2023-02-02T05:41:42;16.30;;;3.42;;
30046;SDS011;16878;52.542;13.426;2023-02-02T05:44:08;17.63;;;2.85;;
30046;SDS011;16878;52.542;13.426;2023-02-02T05:46:36;24.48;;;3.38;;
30046;SDS011;16878;52.542;13.426;2023-02-02T05:49:02;19.75;;;3.97;;
30046;SDS011;16878;52.542;13.426;2023-02-02T05:51:47;22.23;;;3.90;;
30046;SDS011;16878;52.542;13.426;2023-02-02T05:54:17;21.08;;;3.20;;
30046;SDS011;16878;52.542;13.426;2023-02-02T05:56:47;14.63;;;3.05;;
30046;SDS011;16878;52.542;13.426;2023-02-02T05:59:15;26.20;;;3.95;;
30046;SDS011;16878;52.542;13.426;2023-02-02T06:01:42;15.80;;;3.13;;
30046;SDS011;16878;52.542;13.426;2023-02-02T06:04:08;14.85;;;2.63;;
30046;SDS011;16878;52.542;13.426;2023-02-02T06:06:34;23.15;;;4.85;;
30046;SDS011;16878;52.542;13.426;2023-02-02T06:09:02;22.05;;;2.95;;
30046;SDS011;16878;52.542;13.426;2023-02-02T06:11:28;19.75;;;2.67;;
30046;SDS011;16878;52.542;13.426;2023-02-02T06:13:53;19.38;;;3.33;;
30046;SDS011;16878;52.542;13.426;2023-02-02T06:16:19;21.63;;;4.15;;
30046;SDS011;16878;52.542;13.426;2023-02-02T06:18:46;20.48;;;3.80;;
30046;SDS011;16878;52.542;13.426;2023-02-02T06:21:12;23.15;;;4.25;;
30046;SDS011;16878;52.542;13.426;2023-02-02T06:23:38;31.90;;;4.20;;
30046;SDS011;16878;52.542;13.426;2023-02-02T06:26:09;20.60;;;4.00;;
30046;SDS011;16878;52.542;13.426;2023-02-02T06:28:36;22.63;;;4.18;;
30046;SDS011;16878;52.542;13.426;2023-02-02T06:31:02;19.23;;;3.78;;
30046;SDS011;16878;52.542;13.426;2023-02-02T06:33:29;23.05;;;3.33;;
30046;SDS011;16878;52.542;13.426;2023-02-02T06:35:59;20.90;;;3.83;;
30046;SDS011;16878;52.542;13.426;2023-02-02T06:38:26;25.00;;;4.20;;
30046;SDS011;16878;52.542;13.426;2023-02-02T06:40:52;28.70;;;4.75;;
30046;SDS011;16878;52.542;13.426;2023-02-02T06:43:18;44.45;;;5.40;;
30046;SDS011;16878;52.542;13.426;2023-02-02T06:45:47;18.90;;;3.30;;
30046;SDS011;16878;52.542;13.426;2023-02-02T06:48:13;16.58;;;3.47;;
30046;SDS011;16878;52.542;13.426;2023-02-02T06:50:38;27.65;;;4.53;;
30046;SDS011;16878;52.542;13.426;2023-02-02T06:53:04;17.05;;;3.20;;
30046;SDS011;16878;52.542;13.426;2023-02-02T06:55:30;29.75;;;3.55;;
30046;SDS011;16878;52.542;13.426;2023-02-02T06:57:56;22.20;;;3.63;;
30046;SDS011;16878;52.542;13.426;2023-02-02T07:00:23;24.05;;;3.60;;
30046;SDS011;16878;52.542;13.426;2023-02-02T07:02:50;31.05;;;3.63;;
30046;SDS011;16878;52.542;13.426;2023-02-02T07:05:15;24.98;;;4.25;;
30046;SDS011;16878;52.542;13.426;2023-02-02T07:07:43;22.45;;;3.65;;
30046;SDS011;16878;52.542;13.426;2023-02-02T07:10:12;12.57;;;3.17;;
30046;SDS011;16878;52.542;13.426;2023-02-02T07:12:38;24.15;;;3.03;;
30046;SDS011;16878;52.542;13.426;2023-02-02T07:15:04;24.20;;;4.40;;
30046;SDS011;16878;52.542;13.426;2023-02-02T07:17:31;19.25;;;4.25;;
30046;SDS011;16878;52.542;13.426;2023-02-02T07:19:56;24.02;;;3.33;;
30046;SDS011;16878;52.542;13.426;2023-02-02T07:22:22;12.85;;;3.78;;
30046;SDS011;16878;52.542;13.426;2023-02-02T07:24:48;25.27;;;3.53;;
30046;SDS011;16878;52.542;13.426;2023-02-02T07:27:13;13.13;;;3.60;;
30046;SDS011;16878;52.542;13.426;2023-02-02T07:29:39;21.58;;;3.67;;
30046;SDS011;16878;52.542;13.426;2023-02-02T07:32:08;24.60;;;4.05;;
30046;SDS011;16878;52.542;13.426;2023-02-02T07:34:36;13.93;;;3.15;;
30046;SDS011;16878;52.542;13.426;2023-02-02T07:37:02;25.95;;;3.72;;
30046;SDS011;16878;52.542;13.426;2023-02-02T07:39:34;19.58;;;2.70;;
30046;SDS011;16878;52.542;13.426;2023-02-02T07:42:00;20.63;;;3.25;;
30046;SDS011;16878;52.542;13.426;2023-02-02T07:44:26;21.02;;;3.58;;
30046;SDS011;16878;52.542;13.426;2023-02-02T07:46:51;20.25;;;3.00;;
30046;SDS011;16878;52.542;13.426;2023-02-02T07:49:17;20.13;;;3.33;;
30046;SDS011;16878;52.542;13.426;2023-02-02T07:51:44;24.15;;;4.03;;
30046;SDS011;16878;52.542;13.426;2023-02-02T07:54:13;21.98;;;3.58;;
30046;SDS011;16878;52.542;13.426;2023-02-02T07:56:39;24.88;;;3.58;;
30046;SDS011;16878;52.542;13.426;2023-02-02T07:59:05;14.20;;;3.10;;
30046;SDS011;16878;52.542;13.426;2023-02-02T08:01:31;23.38;;;3.47;;
30046;SDS011;16878;52.542;13.426;2023-02-02T08:03:58;22.02;;;3.15;;
30046;SDS011;16878;52.542;13.426;2023-02-02T08:06:27;18.08;;;3.40;;
30046;SDS011;16878;52.542;13.426;2023-02-02T08:08:56;26.38;;;3.60;;
30046;SDS011;16878;52.542;13.426;2023-02-02T08:11:23;18.70;;;3.15;;
30046;SDS011;16878;52.542;13.426;2023-02-02T08:13:54;18.05;;;3.42;;
30046;SDS011;16878;52.542;13.426;2023-02-02T08:16:24;20.13;;;4.07;;
30046;SDS011;16878;52.542;13.426;2023-02-02T08:18:51;22.40;;;4.15;;
30046;SDS011;16878;52.542;13.426;2023-02-02T08:21:17;21.40;;;4.38;;
30046;SDS011;16878;52.542;13.426;2023-02-02T08:23:43;23.90;;;3.92;;
30046;SDS011;16878;52.542;13.426;2023-02-02T08:26:14;27.45;;;4.25;;
30046;SDS011;16878;52.542;13.426;2023-02-02T08:28:43;26.90;;;4.53;;
30046;SDS011;16878;52.542;13.426;2023-02-02T08:31:14;22.27;;;4.38;;
30046;SDS011;16878;52.542;13.426;2023-02-02T08:33:58;24.30;;;3.97;;
30046;SDS011;16878;52.542;13.426;2023-02-02T08:36:24;21.27;;;3.65;;
30046;SDS011;16878;52.542;13.426;2023-02-02T08:38:51;15.55;;;3.55;;
30046;SDS011;16878;52.542;13.426;2023-02-02T08:41:18;23.10;;;5.15;;
30046;SDS011;16878;52.542;13.426;2023-02-02T08:43:46;24.60;;;4.07;;
30046;SDS011;16878;52.542;13.426;2023-02-02T08:46:12;20.35;;;4.15;;
30046;SDS011;16878;52.542;13.426;2023-02-02T08:48:39;22.08;;;3.97;;
30046;SDS011;16878;52.542;13.426;2023-02-02T08:51:05;25.15;;;3.80;;
30046;SDS011;16878;52.542;13.426;2023-02-02T08:53:32;17.48;;;3.63;;
30046;SDS011;16878;52.542;13.426;2023-02-02T08:58:25;19.25;;;4.15;;
30046;SDS011;16878;52.542;13.426;2023-02-02T09:00:51;17.92;;;3.22;;
30046;SDS011;16878;52.542;13.426;2023-02-02T09:03:17;19.83;;;3.90;;
30046;SDS011;16878;52.542;13.426;2023-02-02T09:05:43;19.63;;;4.65;;
30046;SDS011;16878;52.542;13.426;2023-02-02T09:08:09;24.48;;;4.03;;
30046;SDS011;16878;52.542;13.426;2023-02-02T09:10:35;24.17;;;3.10;;
30046;SDS011;16878;52.542;13.426;2023-02-02T09:13:01;19.90;;;3.80;;
30046;SDS011;16878;52.542;13.426;2023-02-02T09:15:27;26.65;;;3.90;;
30046;SDS011;16878;52.542;13.426;2023-02-02T09:17:53;19.80;;;3.38;;
30046;SDS011;16878;52.542;13.426;2023-02-02T09:20:19;22.38;;;3.83;;
30046;SDS011;16878;52.542;13.426;2023-02-02T09:22:46;21.27;;;3.70;;
30046;SDS011;16878;52.542;13.426;2023-02-02T09:25:11;20.95;;;3.45;;
30046;SDS011;16878;52.542;13.426;2023-02-02T09:27:37;17.55;;;3.60;;
30046;SDS011;16878;52.542;13.426;2023-02-02T09:30:05;25.70;;;4.70;;
30046;SDS011;16878;52.542;13.426;2023-02-02T09:32:32;28.70;;;3.50;;
30046;SDS011;16878;52.542;13.426;2023-02-02T09:34:58;20.33;;;3.20;;
30046;SDS011;16878;52.542;13.426;2023-02-02T09:37:24;22.60;;;4.82;;
30046;SDS011;16878;52.542;13.426;2023-02-02T09:39:53;21.67;;;3.78;;
30046;SDS011;16878;52.542;13.426;2023-02-02T09:45:26;13.50;;;3.10;;
30046;SDS011;16878;52.542;13.426;2023-02-02T09:48:12;17.27;;;3.15;;
30046;SDS011;16878;52.542;13.426;2023-02-02T09:51:04;21.25;;;3.67;;
30046;SDS011;16878;52.542;13.426;2023-02-02T09:53:38;20.30;;;3.60;;
30046;SDS011;16878;52.542;13.426;2023-02-02T09:56:11;14.98;;;3.53;;
30046;SDS011;16878;52.542;13.426;2023-02-02T09:58:49;16.65;;;3.17;;
30046;SDS011;16878;52.542;13.426;2023-02-02T10:01:23;19.05;;;4.22;;
30046;SDS011;16878;52.542;13.426;2023-02-02T10:14:50;20.80;;;4.18;;
30046;SDS011;16878;52.542;13.426;2023-02-02T10:17:47;19.60;;;4.20;;
30046;SDS011;16878;52.542;13.426;2023-02-02T10:23:07;20.02;;;6.72;;
30046;SDS011;16878;52.542;13.426;2023-02-02T10:25:54;26.00;;;6.03;;
30046;SDS011;16878;52.542;13.426;2023-02-02T10:28:23;20.02;;;3.83;;
30046;SDS011;16878;52.542;13.426;2023-02-02T10:31:03;23.45;;;4.60;;
30046;SDS011;16878;52.542;13.426;2023-02-02T10:33:37;21.20;;;4.18;;
30046;SDS011;16878;52.542;13.426;2023-02-02T10:47:03;20.40;;;5.40;;
30046;SDS011;16878;52.542;13.426;2023-02-02T10:49:34;20.63;;;5.88;;
30046;SDS011;16878;52.542;13.426;2023-02-02T10:54:53;19.15;;;7.55;;
30046;SDS011;16878;52.542;13.426;2023-02-02T10:57:24;16.38;;;4.03;;
30046;SDS011;16878;52.542;13.426;2023-02-02T11:02:35;18.80;;;3.88;;
30046;SDS011;16878;52.542;13.426;2023-02-02T11:05:00;15.52;;;4.32;;
30046;SDS011;16878;52.542;13.426;2023-02-02T11:07:45;23.80;;;4.32;;
30046;SDS011;16878;52.542;13.426;2023-02-02T11:10:10;15.23;;;4.03;;
30046;SDS011;16878;52.542;13.426;2023-02-02T11:12:39;15.00;;;4.63;;
30046;SDS011;16878;52.542;13.426;2023-02-02T11:15:59;17.02;;;5.00;;
30046;SDS011;16878;52.542;13.426;2023-02-02T11:18:24;21.42;;;6.75;;
30046;SDS011;16878;52.542;13.426;2023-02-02T11:20:53;23.92;;;7.25;;
30046;SDS011;16878;52.542;13.426;2023-02-02T11:23:19;29.35;;;9.10;;
30046;SDS011;16878;52.542;13.426;2023-02-02T11:25:45;23.70;;;7.47;;
30046;SDS011;16878;52.542;13.426;2023-02-02T11:28:23;28.85;;;7.30;;
30046;SDS011;16878;52.542;13.426;2023-02-02T11:30:54;29.73;;;7.95;;
30046;SDS011;16878;52.542;13.426;2023-02-02T11:36:01;30.88;;;9.52;;
30046;SDS011;16878;52.542;13.426;2023-02-02T11:38:32;21.60;;;5.75;;
30046;SDS011;16878;52.542;13.426;2023-02-02T11:43:34;31.80;;;5.50;;
30046;SDS011;16878;52.542;13.426;2023-02-02T11:46:24;16.95;;;4.22;;
30046;SDS011;16878;52.542;13.426;2023-02-02T11:49:26;13.25;;;3.42;;
30046;SDS011;16878;52.542;13.426;2023-02-02T11:51:58;20.40;;;4.15;;
30046;SDS011;16878;52.542;13.426;2023-02-02T11:54:31;19.40;;;5.05;;
30046;SDS011;16878;52.542;13.426;2023-02-02T11:56:59;17.75;;;4.25;;
30046;SDS011;16878;52.542;13.426;2023-02-02T11:59:35;21.33;;;4.45;;
30046;SDS011;16878;52.542;13.426;2023-02-02T12:02:35;19.05;;;4.47;;
30046;SDS011;16878;52.542;13.426;2023-02-02T12:05:21;23.35;;;6.40;;
30046;SDS011;16878;52.542;13.426;2023-02-02T12:08:00;21.15;;;4.03;;
30046;SDS011;16878;52.542;13.426;2023-02-02T12:10:35;18.92;;;3.70;;
30046;SDS011;16878;52.542;13.426;2023-02-02T12:13:15;18.48;;;3.97;;
30046;SDS011;16878;52.542;13.426;2023-02-02T12:16:20;13.60;;;3.47;;
30046;SDS011;16878;52.542;13.426;2023-02-02T12:24:32;17.48;;;4.55;;
30046;SDS011;16878;52.542;13.426;2023-02-02T12:54:09;15.68;;;3.38;;
30046;SDS011;16878;52.542;13.426;2023-02-02T12:56:47;15.02;;;2.40;;
30046;SDS011;16878;52.542;13.426;2023-02-02T13:04:48;13.48;;;3.25;;
30046;SDS011;16878;52.542;13.426;2023-02-02T13:07:35;16.88;;;2.78;;
30046;SDS011;16878;52.542;13.426;2023-02-02T13:12:41;12.90;;;2.85;;
30046;SDS011;16878;52.542;13.426;2023-02-02T13:15:13;8.35;;;1.70;;
30046;SDS011;16878;52.542;13.426;2023-02-02T13:20:35;13.18;;;2.85;;
30046;SDS011;16878;52.542;13.426;2023-02-02T13:23:10;14.32;;;2.92;;
30046;SDS011;16878;52.542;13.426;2023-02-02T13:25:48;11.45;;;2.95;;
30046;SDS011;16878;52.542;13.426;2023-02-02T13:31:05;9.15;;;2.38;;
30046;SDS011;16878;52.542;13.426;2023-02-02T13:36:53;11.05;;;2.65;;
30046;SDS011;16878;52.542;13.426;2023-02-02T13:39:33;17.30;;;3.08;;
30046;SDS011;16878;52.542;13.426;2023-02-02T13:42:03;16.83;;;3.83;;
30046;SDS011;16878;52.542;13.426;2023-02-02T13:44:40;15.30;;;3.00;;
30046;SDS011;16878;52.542;13.426;2023-02-02T13:47:21;7.22;;;2.25;;
30046;SDS011;16878;52.542;13.426;2023-02-02T13:49:54;9.90;;;2.25;;
30046;SDS011;16878;52.542;13.426;2023-02-02T13:53:22;12.07;;;2.15;;
30046;SDS011;16878;52.542;13.426;2023-02-02T14:01:00;8.02;;;2.58;;
30046;SDS011;16878;52.542;13.426;2023-02-02T14:03:36;7.50;;;1.83;;
30046;SDS011;16878;52.542;13.426;2023-02-02T14:06:16;11.73;;;2.53;;
30046;SDS011;16878;52.542;13.426;2023-02-02T14:09:00;8.13;;;2.53;;
30046;SDS011;16878;52.542;13.426;2023-02-02T14:11:30;6.75;;;2.28;;
30046;SDS011;16878;52.542;13.426;2023-02-02T14:14:19;10.73;;;2.25;;
30046;SDS011;16878;52.542;13.426;2023-02-02T14:24:45;7.32;;;1.80;;
30046;SDS011;16878;52.542;13.426;2023-02-02T14:43:18;13.02;;;3.13;;
30046;SDS011;16878;52.542;13.426;2023-02-02T14:48:45;10.35;;;1.70;;
30046;SDS011;16878;52.542;13.426;2023-02-02T14:53:45;6.80;;;1.92;;
30046;SDS011;16878;52.542;13.426;2023-02-02T14:56:14;6.72;;;2.05;;
30046;SDS011;16878;52.542;13.426;2023-02-02T15:03:54;3.95;;;1.50;;
30046;SDS011;16878;52.542;13.426;2023-02-02T15:14:37;9.52;;;2.40;;
30046;SDS011;16878;52.542;13.426;2023-02-02T15:17:25;10.95;;;2.75;;
30046;SDS011;16878;52.542;13.426;2023-02-02T15:25:50;7.65;;;3.20;;
30046;SDS011;16878;52.542;13.426;2023-02-02T15:31:27;11.05;;;3.20;;
30046;SDS011;16878;52.542;13.426;2023-02-02T15:34:16;6.80;;;3.13;;
30046;SDS011;16878;52.542;13.426;2023-02-02T15:36:47;5.88;;;2.80;;
30046;SDS011;16878;52.542;13.426;2023-02-02T15:39:53;9.48;;;2.55;;
30046;SDS011;16878;52.542;13.426;2023-02-02T15:42:23;6.90;;;2.78;;
30046;SDS011;16878;52.542;13.426;2023-02-02T15:47:57;11.70;;;4.25;;
30046;SDS011;16878;52.542;13.426;2023-02-02T15:50:24;11.65;;;4.20;;
30046;SDS011;16878;52.542;13.426;2023-02-02T15:52:51;9.82;;;3.63;;
30046;SDS011;16878;52.542;13.426;2023-02-02T15:57:48;11.20;;;3.20;;
30046;SDS011;16878;52.542;13.426;2023-02-02T16:00:26;8.07;;;3.25;;
30046;SDS011;16878;52.542;13.426;2023-02-02T16:03:02;9.88;;;2.55;;
30046;SDS011;16878;52.542;13.426;2023-02-02T16:07:56;7.43;;;2.92;;
30046;SDS011;16878;52.542;13.426;2023-02-02T16:10:24;11.07;;;2.80;;
30046;SDS011;16878;52.542;13.426;2023-02-02T16:12:50;7.80;;;2.35;;
30046;SDS011;16878;52.542;13.426;2023-02-02T16:15:20;12.18;;;2.67;;
30046;SDS011;16878;52.542;13.426;2023-02-02T16:18:00;6.28;;;2.95;;
30046;SDS011;16878;52.542;13.426;2023-02-02T16:20:36;13.32;;;3.10;;
30046;SDS011;16878;52.542;13.426;2023-02-02T16:23:03;9.57;;;3.53;;
30046;SDS011;16878;52.542;13.426;2023-02-02T16:25:40;7.38;;;2.90;;
30046;SDS011;16878;52.542;13.426;2023-02-02T16:28:13;6.38;;;2.92;;
30046;SDS011;16878;52.542;13.426;2023-02-02T16:30:45;8.63;;;3.53;;
30046;SDS011;16878;52.542;13.426;2023-02-02T16:33:25;9.15;;;3.28;;
30046;SDS011;16878;52.542;13.426;2023-02-02T16:36:03;15.50;;;5.63;;
30046;SDS011;16878;52.542;13.426;2023-02-02T16:38:40;9.15;;;3.70;;
30046;SDS011;16878;52.542;13.426;2023-02-02T16:41:06;8.50;;;3.45;;
30046;SDS011;16878;52.542;13.426;2023-02-02T16:43:38;11.90;;;3.60;;
30046;SDS011;16878;52.542;13.426;2023-02-02T16:46:11;12.57;;;4.28;;
30046;SDS011;16878;52.542;13.426;2023-02-02T16:53:41;13.57;;;3.03;;
30046;SDS011;16878;52.542;13.426;2023-02-02T16:56:09;7.43;;;3.17;;
30046;SDS011;16878;52.542;13.426;2023-02-02T16:58:50;16.30;;;3.08;;
30046;SDS011;16878;52.542;13.426;2023-02-02T17:01:21;10.02;;;3.40;;
30046;SDS011;16878;52.542;13.426;2023-02-02T17:03:58;9.18;;;4.10;;
30046;SDS011;16878;52.542;13.426;2023-02-02T17:11:55;11.98;;;5.25;;
30046;SDS011;16878;52.542;13.426;2023-02-02T17:14:29;16.10;;;4.70;;
30046;SDS011;16878;52.542;13.426;2023-02-02T17:16:57;7.70;;;4.07;;
30046;SDS011;16878;52.542;13.426;2023-02-02T17:19:23;9.65;;;4.05;;
30046;SDS011;16878;52.542;13.426;2023-02-02T17:21:53;10.60;;;5.07;;
30046;SDS011;16878;52.542;13.426;2023-02-02T17:24:19;13.32;;;5.28;;
30046;SDS011;16878;52.542;13.426;2023-02-02T17:26:45;10.68;;;3.67;;
30046;SDS011;16878;52.542;13.426;2023-02-02T17:29:13;16.13;;;4.07;;
30046;SDS011;16878;52.542;13.426;2023-02-02T17:31:41;8.20;;;3.65;;
30046;SDS011;16878;52.542;13.426;2023-02-02T17:34:08;13.13;;;4.25;;
30046;SDS011;16878;52.542;13.426;2023-02-02T17:36:40;12.00;;;4.53;;
30046;SDS011;16878;52.542;13.426;2023-02-02T17:39:06;11.25;;;3.85;;
30046;SDS011;16878;52.542;13.426;2023-02-02T17:41:32;10.77;;;4.47;;
30046;SDS011;16878;52.542;13.426;2023-02-02T17:43:58;20.35;;;5.28;;
30046;SDS011;16878;52.542;13.426;2023-02-02T17:46:24;14.52;;;4.97;;
30046;SDS011;16878;52.542;13.426;2023-02-02T17:48:54;11.48;;;5.10;;
30046;SDS011;16878;52.542;13.426;2023-02-02T17:51:24;13.30;;;5.35;;
30046;SDS011;16878;52.542;13.426;2023-02-02T17:53:49;15.65;;;5.35;;
30046;SDS011;16878;52.542;13.426;2023-02-02T17:56:16;13.13;;;6.25;;
30046;SDS011;16878;52.542;13.426;2023-02-02T17:58:46;13.73;;;5.60;;
30046;SDS011;16878;52.542;13.426;2023-02-02T18:01:11;15.27;;;5.07;;
30046;SDS011;16878;52.542;13.426;2023-02-02T18:03:38;15.32;;;6.95;;